Aérodrome :
LOGIN :

S'inscrire | Disclaimer

   EN    FR    IT 

 










Légende :    VFR   VFR Marginal   IFR   IFR Intensif   IFR Très Intensif
Visi : 
Plafond : 
>= 8 km
>= 3000ft
5 à 8 km
1000 à 3000 ft
1500m à 5 km
500 à 1000 ft
800 à 1500m
200 à 500 ft
< 800m
< 200 ft
Symboles :   Orages  Brouillard  Fortes neiges  Fortes précipitations  Vent > 20 kt
SIGMETs :   Divers  Orages  Givrage  Turbulence  Onde Orograph.  Cendres Volcan.






- Altitude de l'aérodrome : 375 ft
- Code IATA : MST


EHBK - Maastricht Aachen

DERNIER METAR :
  • 241655Z AUTO 18007KT 150V210 9999 NCD 17/09 Q1027 NOSIG

METARs EXPIRÉS :
  • 241625Z AUTO 19006KT 9999 NCD 18/09 Q1027 NOSIG
  • 241555Z AUTO 21009KT 9999 NCD 19/09 Q1027 NOSIG
  • 241525Z AUTO 22012KT 9999 NCD 19/09 Q1027 NOSIG
  • 241455Z AUTO 22013KT 180V250 9999 NCD 19/09 Q1027 NOSIG
  • 241425Z AUTO 22011KT 190V270 9999 NCD 19/09 Q1028 NOSIG

TAF TAF EHBK
Valide du 24 à 12h jusqu'au 25 à 18h UTC


241057Z 2412/2518 21012KT CAVOK
BECMG 2415/2418 18008KT
BECMG 2500/2503 21010KT
BECMG 2509/2512 24010KT
BECMG 2513/2516 30005KT



MET'MAP, la Météo Aéronautique d'un coup d'oeil ! - Copyright ORBIFLY Décembre 2007 - Disclaimer

ORBIFLY MET'MAP TEAM :

Programmation & Développement : Alexandra Zaïnal
Sur une idée originale de : Baudouin d'Aumeries
Assistance à la programmation : Marc-Olivier Méhu
Soutien technique & logistique : Manuel Goepfert

Contact : metmap@orbifly.com




SOURCES & CREDITS :

   NOAA